Time;durP1;ratioP1;P1;durP2;ratioP2;P2;SDS_P1;SDS_P2;PMS_P1;PMS_P2;Temp;Humidity;BMP_temperature;BMP_pressure;BME280_temperature;BME280_humidity;BME280_pressure;Samples;Min_cycle;Max_cycle;Signal;HPM_P1;HPM_P2
2021/09/13 00:00:04;;;;;;;5.37;4.87;;;;;23.60;100776.00;;;;2063334;28;20223;-57
2021/09/13 00:01:04;;;;;;;4.88;4.50;;;;;23.60;100770.00;;;;2062591;28;20281;-55
2021/09/13 00:02:05;;;;;;;4.73;4.30;;;;;23.60;100769.00;;;;2062582;28;20214;-55
2021/09/13 00:03:06;;;;;;;4.60;4.20;;;;;23.60;100766.00;;;;2062900;28;20223;-55
2021/09/13 00:04:06;;;;;;;4.50;4.20;;;;;23.60;100770.00;;;;2071344;28;20225;-55
2021/09/13 00:05:07;;;;;;;4.80;4.40;;;;;23.60;100769.00;;;;2071429;28;20241;-56
2021/09/13 00:06:07;;;;;;;4.80;4.40;;;;;23.50;100772.00;;;;2071296;28;20296;-55
2021/09/13 00:07:08;;;;;;;5.17;4.77;;;;;23.60;100770.00;;;;2071026;28;20296;-54
2021/09/13 00:08:08;;;;;;;4.43;4.07;;;;;23.60;100763.00;;;;2071233;28;20219;-55
2021/09/13 00:09:09;;;;;;;4.63;4.23;;;;;23.50;100763.00;;;;2069796;28;20293;-55
2021/09/13 00:10:09;;;;;;;4.90;4.50;;;;;23.60;100764.00;;;;2071212;28;20697;-57
2021/09/13 00:11:09;;;;;;;4.80;4.40;;;;;23.60;100764.00;;;;2070956;28;20217;-55
2021/09/13 00:12:10;;;;;;;4.50;4.13;;;;;23.60;100757.00;;;;2071020;28;20301;-55
2021/09/13 00:13:10;;;;;;;4.80;4.40;;;;;23.60;100768.00;;;;2070941;28;20218;-54
2021/09/13 00:14:10;;;;;;;4.80;4.40;;;;;23.60;100763.00;;;;2071244;28;20268;-55
2021/09/13 00:15:11;;;;;;;4.33;4.03;;;;;23.60;100765.00;;;;2071225;28;20218;-56
2021/09/13 00:16:11;;;;;;;4.60;4.20;;;;;23.60;100772.00;;;;2064476;28;20218;-54
2021/09/13 00:17:12;;;;;;;5.03;4.63;;;;;23.60;100766.00;;;;2062289;28;20218;-56
2021/09/13 00:18:12;;;;;;;4.40;4.00;;;;;23.60;100765.00;;;;2063066;28;20221;-54
2021/09/13 00:19:12;;;;;;;4.73;4.30;;;;;23.60;100770.00;;;;2061902;28;20223;-56
2021/09/13 00:20:13;;;;;;;5.10;4.70;;;;;23.60;100764.00;;;;2062964;28;20218;-55
2021/09/13 00:21:13;;;;;;;4.53;4.17;;;;;23.60;100763.00;;;;2062001;28;20664;-55
2021/09/13 00:22:14;;;;;;;4.93;4.20;;;;;23.60;100765.00;;;;2066892;28;20216;-56
2021/09/13 00:23:14;;;;;;;4.90;4.40;;;;;23.60;100759.00;;;;2066184;28;20475;-54
2021/09/13 00:24:14;;;;;;;3.93;3.63;;;;;23.60;100760.00;;;;2063071;28;20214;-54
2021/09/13 00:25:15;;;;;;;5.43;4.03;;;;;23.60;100757.00;;;;2063002;28;20215;-55
2021/09/13 00:26:15;;;;;;;4.90;4.07;;;;;23.60;100756.00;;;;2062757;28;20361;-55
2021/09/13 00:27:15;;;;;;;4.30;4.00;;;;;23.60;100753.00;;;;2063006;28;20207;-56
2021/09/13 00:28:16;;;;;;;4.87;4.40;;;;;23.60;100756.00;;;;2062838;28;20215;-56
2021/09/13 00:29:16;;;;;;;4.87;4.47;;;;;23.60;100757.00;;;;2061844;28;20683;-54
2021/09/13 00:30:16;;;;;;;4.27;3.97;;;;;23.60;100753.00;;;;2063028;28;20639;-54
2021/09/13 00:31:17;;;;;;;4.00;3.70;;;;;23.60;100755.00;;;;2062757;28;20757;-55
2021/09/13 00:32:17;;;;;;;4.37;3.97;;;;;23.60;100758.00;;;;2062994;28;20226;-55
2021/09/13 00:33:17;;;;;;;4.33;3.93;;;;;23.60;100760.00;;;;2068430;28;20218;-57
2021/09/13 00:34:18;;;;;;;4.63;4.20;;;;;23.60;100750.00;;;;2070196;28;20218;-57
2021/09/13 00:35:18;;;;;;;4.10;3.80;;;;;23.60;100752.00;;;;2070454;28;20590;-57
2021/09/13 00:36:18;;;;;;;4.53;4.17;;;;;23.40;100751.00;;;;2070026;28;20214;-56
2021/09/13 00:37:19;;;;;;;4.40;4.00;;;;;23.60;100751.00;;;;2070284;28;20305;-55
2021/09/13 00:38:19;;;;;;;4.20;3.70;;;;;23.60;100748.00;;;;2070230;28;20218;-55
2021/09/13 00:39:19;;;;;;;3.50;3.23;;;;;23.50;100755.00;;;;2068701;28;20217;-54
2021/09/13 00:40:20;;;;;;;4.10;3.70;;;;;23.50;100755.00;;;;2069815;28;20229;-56
2021/09/13 00:41:21;;;;;;;3.90;3.60;;;;;23.60;100761.00;;;;2069876;28;20683;-56
2021/09/13 00:42:21;;;;;;;4.03;3.73;;;;;23.60;100759.00;;;;2070567;28;20198;-54
2021/09/13 00:43:21;;;;;;;4.13;3.80;;;;;23.60;100759.00;;;;2070032;28;20217;-57
2021/09/13 00:44:22;;;;;;;4.00;3.60;;;;;23.50;100758.00;;;;2070670;28;20206;-56
2021/09/13 00:45:22;;;;;;;4.03;3.70;;;;;23.50;100746.00;;;;2070370;28;20214;-56
2021/09/13 00:46:23;;;;;;;4.00;3.70;;;;;23.40;100760.00;;;;2070502;28;20218;-56
2021/09/13 00:47:23;;;;;;;4.20;3.83;;;;;23.50;100756.00;;;;2070234;28;20206;-54
2021/09/13 00:48:24;;;;;;;3.23;3.03;;;;;23.50;100758.00;;;;2070499;28;20219;-54
2021/09/13 00:49:24;;;;;;;4.10;3.80;;;;;23.50;100762.00;;;;2069159;28;20226;-55
2021/09/13 00:50:25;;;;;;;3.70;3.40;;;;;23.60;100760.00;;;;2069769;28;20630;-54
2021/09/13 00:51:25;;;;;;;3.70;3.40;;;;;23.60;100758.00;;;;2070549;28;20210;-54
2021/09/13 00:52:25;;;;;;;4.50;4.20;;;;;23.50;100760.00;;;;2067874;28;20245;-54
2021/09/13 00:53:26;;;;;;;4.30;4.00;;;;;23.50;100750.00;;;;2062471;28;20219;-55
2021/09/13 00:54:27;;;;;;;4.20;3.80;;;;;23.50;100753.00;;;;2062938;28;20206;-57
2021/09/13 00:55:27;;;;;;;4.03;3.73;;;;;23.50;100748.00;;;;2062490;28;20713;-55
2021/09/13 00:56:27;;;;;;;3.90;3.60;;;;;23.50;100755.00;;;;2062308;28;20818;-54
2021/09/13 00:57:28;;;;;;;3.70;3.50;;;;;23.50;100758.00;;;;2054400;28;20204;-55
2021/09/13 00:58:28;;;;;;;3.73;3.43;;;;;23.50;100762.00;;;;2062164;28;20207;-56
2021/09/13 00:59:29;;;;;;;3.43;3.23;;;;;23.50;100761.00;;;;2061498;28;20202;-55
2021/09/13 01:00:29;;;;;;;3.77;3.47;;;;;23.50;100762.00;;;;2061973;28;20297;-55
2021/09/13 01:01:29;;;;;;;3.97;3.67;;;;;23.50;100752.00;;;;2062242;28;20210;-55
2021/09/13 01:02:30;;;;;;;3.83;3.57;;;;;23.50;100755.00;;;;2062906;28;20226;-55
2021/09/13 01:03:31;;;;;;;5.60;3.80;;;;;23.50;100760.00;;;;2062693;28;20224;-56
2021/09/13 01:04:32;;;;;;;4.60;3.40;;;;;23.50;100759.00;;;;2061950;28;20742;-55
2021/09/13 01:05:32;;;;;;;4.00;3.70;;;;;23.50;100761.00;;;;2061951;28;20218;-54
2021/09/13 01:06:32;;;;;;;4.10;3.80;;;;;23.50;100757.00;;;;2062778;28;20213;-55
2021/09/13 01:07:33;;;;;;;3.80;3.50;;;;;23.50;100753.00;;;;2062959;28;20293;-56
2021/09/13 01:08:33;;;;;;;4.30;4.00;;;;;23.50;100757.00;;;;2062683;28;20325;-57
2021/09/13 01:09:33;;;;;;;3.63;3.33;;;;;23.50;100753.00;;;;2061766;28;20225;-58
2021/09/13 01:10:34;;;;;;;5.33;4.20;;;;;23.50;100751.00;;;;2062475;28;20211;-54
2021/09/13 01:11:34;;;;;;;3.80;3.50;;;;;23.50;100753.00;;;;2062849;28;20211;-55
2021/09/13 01:12:35;;;;;;;3.67;3.33;;;;;23.50;100745.00;;;;2053968;28;20216;-56
2021/09/13 01:13:35;;;;;;;3.90;3.60;;;;;23.50;100763.00;;;;2053887;28;20250;-55
2021/09/13 01:14:36;;;;;;;5.20;4.03;;;;;23.50;100751.00;;;;2062550;28;20210;-55
2021/09/13 01:15:38;;;;;;;4.10;3.80;;;;;23.50;100746.00;;;;2062108;28;20218;-55
2021/09/13 01:16:38;;;;;;;4.15;3.85;;;;;23.40;100748.00;;;;2062685;28;20683;-56
2021/09/13 01:17:39;;;;;;;3.97;3.67;;;;;23.50;100746.00;;;;2062912;28;20244;-57
2021/09/13 01:18:39;;;;;;;3.83;3.60;;;;;23.50;100751.00;;;;2062575;28;20317;-54
2021/09/13 01:19:39;;;;;;;3.90;3.60;;;;;23.40;100756.00;;;;2061680;28;20230;-54
2021/09/13 01:20:40;;;;;;;3.93;3.63;;;;;23.30;100751.00;;;;2062818;28;20217;-55
2021/09/13 01:21:41;;;;;;;3.70;3.40;;;;;23.50;100750.00;;;;2062614;28;20330;-55
2021/09/13 01:22:41;;;;;;;4.20;3.80;;;;;23.50;100749.00;;;;2062630;28;20670;-55
2021/09/13 01:23:41;;;;;;;3.87;3.57;;;;;23.50;100745.00;;;;2061459;28;20238;-54
2021/09/13 01:24:42;;;;;;;3.77;3.47;;;;;23.50;100748.00;;;;2061334;28;20237;-55
2021/09/13 01:25:42;;;;;;;3.97;3.67;;;;;23.40;100746.00;;;;2062383;28;20227;-56
2021/09/13 01:26:42;;;;;;;3.70;3.50;;;;;23.40;100748.00;;;;2062575;28;20226;-54
2021/09/13 01:27:43;;;;;;;3.83;3.43;;;;;23.50;100752.00;;;;2062706;28;20226;-55
2021/09/13 01:28:43;;;;;;;3.83;3.53;;;;;23.40;100752.00;;;;2061457;28;20227;-55
2021/09/13 01:29:43;;;;;;;3.43;3.23;;;;;23.50;100754.00;;;;2062248;28;20293;-56
2021/09/13 01:30:44;;;;;;;3.47;3.27;;;;;23.50;100757.00;;;;2062718;28;20384;-55
2021/09/13 01:31:44;;;;;;;3.80;3.50;;;;;23.50;100742.00;;;;2062574;28;20564;-56
2021/09/13 01:32:44;;;;;;;3.57;3.27;;;;;23.50;100750.00;;;;2062486;28;20579;-55
2021/09/13 01:33:45;;;;;;;4.53;4.13;;;;;23.40;100746.00;;;;2062574;28;20226;-54
2021/09/13 01:34:45;;;;;;;3.93;3.63;;;;;23.50;100748.00;;;;2062578;28;20226;-55
2021/09/13 01:35:46;;;;;;;3.50;3.20;;;;;23.40;100748.00;;;;2062799;28;20219;-55
2021/09/13 01:36:46;;;;;;;3.50;3.20;;;;;23.40;100748.00;;;;2062592;28;20222;-54
2021/09/13 01:37:46;;;;;;;3.80;3.50;;;;;23.40;100756.00;;;;2062508;28;20226;-55
2021/09/13 01:38:47;;;;;;;4.00;3.70;;;;;23.40;100749.00;;;;2061641;28;20219;-54
2021/09/13 01:39:47;;;;;;;3.40;3.20;;;;;23.40;100746.00;;;;2062170;28;20249;-56
2021/09/13 01:40:51;;;;;;;3.63;3.33;;;;;23.50;100749.00;;;;2061865;28;20580;-55
2021/09/13 01:41:51;;;;;;;4.28;3.90;;;;;23.40;100742.00;;;;2060692;28;20621;-55
2021/09/13 01:42:51;;;;;;;3.90;3.60;;;;;23.40;100747.00;;;;2062152;28;20219;-55
2021/09/13 01:43:52;;;;;;;3.87;3.57;;;;;23.40;100742.00;;;;2062417;28;20709;-57
2021/09/13 01:44:52;;;;;;;3.40;3.13;;;;;23.40;100750.00;;;;2062516;28;20581;-56
2021/09/13 01:45:52;;;;;;;3.40;3.20;;;;;23.40;100736.00;;;;2062792;28;20215;-56
2021/09/13 01:46:53;;;;;;;3.53;3.33;;;;;23.40;100753.00;;;;2062657;28;20298;-56
2021/09/13 01:47:53;;;;;;;3.90;3.60;;;;;23.40;100740.00;;;;2061844;28;20222;-55
2021/09/13 01:48:53;;;;;;;3.40;3.10;;;;;23.20;100739.00;;;;2060944;28;20253;-55
2021/09/13 01:49:54;;;;;;;3.33;3.03;;;;;23.40;100746.00;;;;2062246;28;20386;-54
2021/09/13 01:50:54;;;;;;;3.33;3.03;;;;;23.40;100742.00;;;;2062596;28;20229;-54
2021/09/13 01:51:54;;;;;;;4.00;3.70;;;;;23.40;100743.00;;;;2062384;28;20227;-54
2021/09/13 01:52:55;;;;;;;3.47;3.17;;;;;23.40;100742.00;;;;2062247;28;20219;-56
2021/09/13 01:53:55;;;;;;;2.73;2.53;;;;;23.40;100740.00;;;;2062501;28;20296;-54
2021/09/13 01:54:55;;;;;;;3.40;3.10;;;;;23.40;100736.00;;;;2062331;28;20207;-56
2021/09/13 01:55:56;;;;;;;3.13;2.93;;;;;23.40;100741.00;;;;2062552;28;20293;-55
2021/09/13 01:56:56;;;;;;;3.70;3.40;;;;;23.40;100742.00;;;;2061790;28;20213;-55
2021/09/13 01:57:57;;;;;;;3.30;3.10;;;;;23.40;100739.00;;;;2062490;28;20211;-55
2021/09/13 01:59:00;;;;;;;3.53;3.23;;;;;23.40;100732.00;;;;2061583;28;20265;-56
2021/09/13 02:00:00;;;;;;;3.55;3.25;;;;;23.40;100739.00;;;;2068787;28;20214;-55
2021/09/13 02:01:00;;;;;;;3.53;3.23;;;;;23.40;100741.00;;;;2069994;28;20213;-55
2021/09/13 02:02:01;;;;;;;3.37;3.07;;;;;23.40;100743.00;;;;2070757;28;20214;-57
2021/09/13 02:03:01;;;;;;;3.87;3.50;;;;;23.40;100738.00;;;;2066644;28;20222;-56
2021/09/13 02:04:03;;;;;;;3.40;3.20;;;;;23.40;100740.00;;;;2062082;28;20710;-55
2021/09/13 02:05:03;;;;;;;3.28;3.08;;;;;23.40;100737.00;;;;2062442;28;20273;-54
2021/09/13 02:06:04;;;;;;;3.50;3.20;;;;;23.40;100743.00;;;;2062228;28;20298;-55
2021/09/13 02:07:04;;;;;;;3.40;3.20;;;;;23.40;100744.00;;;;2062437;28;20589;-56
2021/09/13 02:08:05;;;;;;;5.30;3.57;;;;;23.40;100742.00;;;;2062291;28;20579;-56
2021/09/13 02:09:05;;;;;;;3.20;3.00;;;;;23.40;100740.00;;;;2061397;28;20226;-56
2021/09/13 02:10:06;;;;;;;3.10;2.90;;;;;23.40;100740.00;;;;2062430;28;20939;-55
2021/09/13 02:11:06;;;;;;;3.40;3.10;;;;;23.40;100742.00;;;;2061852;28;20321;-55
2021/09/13 02:12:07;;;;;;;3.50;3.30;;;;;23.40;100740.00;;;;2062291;28;20462;-55
2021/09/13 02:13:07;;;;;;;3.50;3.23;;;;;23.40;100740.00;;;;2062330;28;20227;-56
2021/09/13 02:14:08;;;;;;;4.00;3.30;;;;;23.40;100737.00;;;;2062418;28;20226;-57
2021/09/13 02:15:09;;;;;;;4.00;3.70;;;;;23.40;100740.00;;;;2060617;28;20225;-55
2021/09/13 02:16:09;;;;;;;3.55;3.25;;;;;23.40;100738.00;;;;2062392;28;20297;-56
2021/09/13 02:17:09;;;;;;;3.43;3.13;;;;;23.40;100738.00;;;;2062140;28;20269;-57
2021/09/13 02:18:10;;;;;;;3.07;2.87;;;;;23.40;100737.00;;;;2062325;28;20211;-56
2021/09/13 02:19:10;;;;;;;3.50;3.23;;;;;23.40;100734.00;;;;2061203;28;20210;-54
2021/09/13 02:20:12;;;;;;;3.33;3.03;;;;;23.40;100733.00;;;;2062517;28;20215;-55
2021/09/13 02:21:12;;;;;;;3.10;2.90;;;;;23.40;100739.00;;;;2062400;28;20218;-54
2021/09/13 02:22:13;;;;;;;3.40;3.10;;;;;23.40;100732.00;;;;2061929;28;20202;-55
2021/09/13 02:23:13;;;;;;;3.53;3.27;;;;;23.30;100735.00;;;;2049955;28;20203;-55
2021/09/13 02:24:13;;;;;;;4.13;3.83;;;;;23.30;100736.00;;;;2063340;28;20214;-57
2021/09/13 02:25:14;;;;;;;3.30;3.10;;;;;23.30;100735.00;;;;2061474;28;20214;-55
2021/09/13 02:26:15;;;;;;;3.53;3.23;;;;;23.30;100728.00;;;;2066900;28;20229;-54
2021/09/13 02:27:15;;;;;;;3.20;3.00;;;;;23.30;100730.00;;;;2069767;28;20234;-54
2021/09/13 02:28:15;;;;;;;2.60;2.50;;;;;23.40;100727.00;;;;2070267;28;20698;-54
2021/09/13 02:29:16;;;;;;;3.20;3.00;;;;;23.40;100733.00;;;;2069367;28;20846;-54
2021/09/13 02:30:16;;;;;;;3.33;3.10;;;;;23.30;100727.00;;;;2070569;28;20257;-54
2021/09/13 02:31:17;;;;;;;2.87;2.67;;;;;23.30;100735.00;;;;2069953;28;20203;-55
2021/09/13 02:32:17;;;;;;;3.10;2.90;;;;;23.30;100740.00;;;;2067295;28;20635;-56
2021/09/13 02:33:18;;;;;;;2.93;2.70;;;;;23.30;100728.00;;;;2069889;28;20210;-55
2021/09/13 02:34:18;;;;;;;3.57;3.37;;;;;23.40;100733.00;;;;2070192;28;20206;-56
2021/09/13 02:35:18;;;;;;;3.10;2.90;;;;;23.30;100744.00;;;;2070520;28;20213;-56
2021/09/13 02:36:19;;;;;;;3.30;3.00;;;;;23.30;100732.00;;;;2071941;28;20210;-54
2021/09/13 02:37:19;;;;;;;3.43;3.13;;;;;23.40;100743.00;;;;2072020;28;20210;-55
2021/09/13 02:38:19;;;;;;;3.20;3.00;;;;;23.40;100739.00;;;;2071963;28;20222;-55
2021/09/13 02:39:20;;;;;;;3.53;3.33;;;;;23.40;100745.00;;;;2070964;28;20218;-54
2021/09/13 02:40:20;;;;;;;3.10;2.90;;;;;23.40;100745.00;;;;2071742;28;20206;-55
2021/09/13 02:41:20;;;;;;;3.37;3.17;;;;;23.40;100739.00;;;;2071053;28;20760;-55
2021/09/13 02:42:21;;;;;;;3.37;3.17;;;;;23.40;100747.00;;;;2072194;28;20296;-55
2021/09/13 02:43:21;;;;;;;3.43;3.13;;;;;23.40;100742.00;;;;2069590;28;20218;-54
2021/09/13 02:44:23;;;;;;;3.23;3.03;;;;;23.30;100742.00;;;;2070832;28;20207;-56
2021/09/13 02:45:23;;;;;;;3.45;3.25;;;;;23.30;100741.00;;;;2071860;28;20214;-55
2021/09/13 02:46:23;;;;;;;3.30;3.10;;;;;23.30;100747.00;;;;2071121;28;20272;-55
2021/09/13 02:47:24;;;;;;;3.00;2.80;;;;;23.30;100751.00;;;;2070891;28;20218;-54
2021/09/13 02:48:24;;;;;;;3.20;3.00;;;;;23.30;100751.00;;;;2071275;28;20687;-56
2021/09/13 02:49:25;;;;;;;3.03;2.83;;;;;23.30;100738.00;;;;2070105;28;20606;-54
2021/09/13 02:50:25;;;;;;;3.20;2.93;;;;;23.30;100745.00;;;;2071212;28;20222;-56
2021/09/13 02:51:25;;;;;;;3.57;3.37;;;;;23.30;100751.00;;;;2071317;28;20221;-54
2021/09/13 02:52:26;;;;;;;3.20;3.00;;;;;23.30;100748.00;;;;2069456;28;20256;-55
2021/09/13 02:53:26;;;;;;;3.40;3.20;;;;;23.30;100749.00;;;;2063662;28;20329;-55
2021/09/13 02:54:26;;;;;;;3.30;3.07;;;;;23.30;100751.00;;;;2063216;28;20237;-56
2021/09/13 02:55:27;;;;;;;3.43;3.20;;;;;23.30;100742.00;;;;2063136;28;20269;-57
2021/09/13 02:56:27;;;;;;;3.20;2.87;;;;;23.30;100743.00;;;;2061979;28;20211;-54
2021/09/13 02:57:28;;;;;;;3.43;3.23;;;;;23.30;100751.00;;;;2062221;28;20675;-55
2021/09/13 02:58:28;;;;;;;3.37;3.17;;;;;23.30;100746.00;;;;2063151;28;20679;-55
2021/09/13 02:59:28;;;;;;;3.37;3.07;;;;;23.30;100742.00;;;;2062128;28;20261;-54
2021/09/13 03:00:29;;;;;;;3.33;3.13;;;;;23.30;100746.00;;;;2062778;28;20214;-55
2021/09/13 03:01:30;;;;;;;3.47;3.27;;;;;23.30;100754.00;;;;2063112;28;20210;-56
2021/09/13 03:02:30;;;;;;;3.70;3.40;;;;;23.30;100747.00;;;;2063194;28;20237;-55
2021/09/13 03:03:30;;;;;;;3.70;3.40;;;;;23.30;100748.00;;;;2063081;28;20215;-56
2021/09/13 03:04:31;;;;;;;3.10;2.90;;;;;23.30;100745.00;;;;2062867;28;20215;-55
2021/09/13 03:05:31;;;;;;;3.70;3.40;;;;;23.30;100747.00;;;;2063818;28;20211;-57
2021/09/13 03:06:32;;;;;;;3.30;3.10;;;;;23.30;100744.00;;;;2062156;28;20269;-54
2021/09/13 03:07:32;;;;;;;3.30;3.10;;;;;23.30;100743.00;;;;2063023;28;20556;-56
2021/09/13 03:08:32;;;;;;;3.23;3.03;;;;;23.40;100750.00;;;;2063477;28;20211;-56
2021/09/13 03:09:33;;;;;;;3.40;3.10;;;;;23.40;100752.00;;;;2061123;28;20215;-56
2021/09/13 03:10:33;;;;;;;3.43;3.13;;;;;23.30;100748.00;;;;2063104;28;20711;-56
2021/09/13 03:11:34;;;;;;;3.37;3.17;;;;;23.30;100739.00;;;;2056722;28;20218;-54
2021/09/13 03:12:35;;;;;;;3.40;3.20;;;;;23.30;100745.00;;;;2070759;28;20222;-54
2021/09/13 03:13:35;;;;;;;3.50;3.20;;;;;23.30;100748.00;;;;2067761;28;20237;-56
2021/09/13 03:14:35;;;;;;;3.23;2.93;;;;;23.30;100747.00;;;;2063648;28;20222;-56
2021/09/13 03:15:36;;;;;;;3.40;3.10;;;;;23.30;100741.00;;;;2062935;28;20706;-55
2021/09/13 03:16:36;;;;;;;3.60;3.30;;;;;23.30;100743.00;;;;2063725;28;20629;-54
2021/09/13 03:17:36;;;;;;;3.20;2.90;;;;;23.30;100742.00;;;;2063655;28;20240;-56
2021/09/13 03:18:40;;;;;;;3.50;3.20;;;;;23.30;100735.00;;;;2057108;28;20213;-55
2021/09/13 03:19:40;;;;;;;3.72;3.50;;;;;23.30;100739.00;;;;2069639;28;20218;-55
2021/09/13 03:20:40;;;;;;;3.60;3.30;;;;;23.30;100733.00;;;;2063555;28;20223;-55
2021/09/13 03:21:41;;;;;;;3.03;2.80;;;;;23.30;100738.00;;;;2063839;28;20269;-56
2021/09/13 03:22:41;;;;;;;3.67;3.37;;;;;23.30;100740.00;;;;2063589;28;20287;-57
2021/09/13 03:23:41;;;;;;;3.20;3.00;;;;;23.30;100740.00;;;;2068723;28;20214;-56
2021/09/13 03:24:42;;;;;;;3.93;3.00;;;;;23.20;100735.00;;;;2058164;28;20226;-56
2021/09/13 03:25:42;;;;;;;3.00;2.80;;;;;23.30;100734.00;;;;2062918;28;20691;-57
2021/09/13 03:26:42;;;;;;;3.17;2.97;;;;;23.30;100730.00;;;;2063384;28;20619;-55
2021/09/13 03:27:43;;;;;;;3.33;3.13;;;;;23.30;100735.00;;;;2063640;28;20237;-55
2021/09/13 03:28:43;;;;;;;3.07;2.87;;;;;23.30;100731.00;;;;2066761;28;20225;-56
2021/09/13 03:29:44;;;;;;;3.53;2.70;;;;;23.30;100728.00;;;;2068680;28;20222;-55
2021/09/13 03:30:44;;;;;;;3.33;3.07;;;;;23.30;100737.00;;;;2071049;28;20222;-54
2021/09/13 03:31:45;;;;;;;3.03;2.83;;;;;23.30;100728.00;;;;2071323;28;20218;-55
2021/09/13 03:32:45;;;;;;;3.07;2.80;;;;;23.30;100741.00;;;;2071417;28;20475;-55
2021/09/13 03:33:46;;;;;;;3.00;2.80;;;;;23.30;100731.00;;;;2071838;28;20272;-53
2021/09/13 03:34:46;;;;;;;3.20;2.90;;;;;23.30;100692.00;;;;2068425;28;20226;-55
2021/09/13 03:35:47;;;;;;;3.50;3.20;;;;;23.30;100732.00;;;;2071642;28;20218;-54
2021/09/13 03:36:47;;;;;;;3.43;3.13;;;;;23.30;100734.00;;;;2071011;28;20233;-54
2021/09/13 03:37:47;;;;;;;3.30;3.10;;;;;23.30;100746.00;;;;2067380;28;20583;-55
2021/09/13 03:38:48;;;;;;;3.60;3.30;;;;;23.30;100740.00;;;;2062639;28;20226;-56
2021/09/13 03:39:48;;;;;;;3.20;2.90;;;;;23.30;100741.00;;;;2063272;28;20215;-56
2021/09/13 03:40:49;;;;;;;3.40;3.10;;;;;23.20;100735.00;;;;2063209;28;20269;-55
2021/09/13 03:41:49;;;;;;;3.30;3.00;;;;;23.20;100734.00;;;;2063255;28;20552;-54
2021/09/13 03:42:50;;;;;;;3.17;2.87;;;;;23.20;100741.00;;;;2063445;28;20299;-55
2021/09/13 03:43:50;;;;;;;3.80;3.50;;;;;23.20;100730.00;;;;2063347;28;20711;-56
2021/09/13 03:44:51;;;;;;;3.50;3.20;;;;;23.20;100732.00;;;;2062920;28;20310;-56
2021/09/13 03:45:51;;;;;;;3.20;3.00;;;;;23.20;100732.00;;;;2063559;28;20219;-55
2021/09/13 03:46:53;;;;;;;3.00;2.80;;;;;23.20;100735.00;;;;2063078;28;20636;-55
2021/09/13 03:47:53;;;;;;;3.10;2.90;;;;;23.20;100733.00;;;;2062843;28;20310;-53
2021/09/13 03:48:54;;;;;;;3.27;3.00;;;;;23.20;100730.00;;;;2062346;28;20622;-54
2021/09/13 03:49:54;;;;;;;3.60;3.40;;;;;23.20;100729.00;;;;2063332;28;20207;-55
2021/09/13 03:50:55;;;;;;;3.57;3.27;;;;;23.20;100718.00;;;;2063552;28;20268;-56
2021/09/13 03:51:55;;;;;;;3.33;3.13;;;;;23.20;100724.00;;;;2063295;28;20214;-54
2021/09/13 03:52:55;;;;;;;3.63;3.33;;;;;23.30;100725.00;;;;2062951;28;20227;-55
2021/09/13 03:53:56;;;;;;;3.00;2.80;;;;;23.30;100726.00;;;;2063171;28;20219;-55
2021/09/13 03:54:57;;;;;;;3.03;2.83;;;;;23.30;100724.00;;;;2058741;28;20309;-56
2021/09/13 03:55:57;;;;;;;3.27;3.07;;;;;23.30;100724.00;;;;2058693;28;20215;-55
2021/09/13 03:56:57;;;;;;;3.77;3.47;;;;;23.30;100721.00;;;;2061067;28;20215;-54
2021/09/13 03:57:58;;;;;;;3.40;3.17;;;;;23.30;100726.00;;;;2063221;28;20219;-56
2021/09/13 03:58:58;;;;;;;3.20;2.90;;;;;23.20;100723.00;;;;2062129;28;20214;-56
2021/09/13 03:59:58;;;;;;;3.80;3.50;;;;;23.30;100726.00;;;;2063301;28;20226;-54
2021/09/13 04:00:59;;;;;;;2.90;2.67;;;;;23.30;100720.00;;;;2063278;28;20218;-55
2021/09/13 04:01:59;;;;;;;3.10;2.77;;;;;23.30;100721.00;;;;2063171;28;20237;-56
2021/09/13 04:03:01;;;;;;;3.60;3.30;;;;;23.30;100725.00;;;;2063122;28;20754;-54
2021/09/13 04:04:04;;;;;;;3.50;3.20;;;;;23.30;100727.00;;;;2063290;28;20684;-55
2021/09/13 04:05:04;;;;;;;3.20;3.00;;;;;23.30;100730.00;;;;2063213;28;20221;-54
2021/09/13 04:06:05;;;;;;;3.60;3.30;;;;;23.30;100731.00;;;;2069114;28;20221;-56
2021/09/13 04:07:19;;;;;;;3.27;2.93;;;;;23.30;100730.00;;;;2070921;28;20224;-55
2021/09/13 04:08:38;;;;;;;3.97;3.50;;;;;23.30;100731.00;;;;2060696;28;20273;-55
2021/09/13 04:11:24;;;;;;;2.80;2.60;;;;;23.20;100730.00;;;;2071270;28;20246;-56
2021/09/13 04:12:03;;;;;;;2.95;2.75;;;;;23.30;100731.00;;;;2072769;28;20222;-54
2021/09/13 04:13:04;;;;;;;4.22;2.60;;;;;23.30;100720.00;;;;2070965;28;20230;-55
2021/09/13 04:14:04;;;;;;;3.30;3.00;;;;;23.30;100729.00;;;;2070918;28;20586;-55
2021/09/13 04:15:05;;;;;;;2.90;2.70;;;;;23.20;100731.00;;;;2071254;28;20246;-55
2021/09/13 04:16:05;;;;;;;3.30;3.10;;;;;23.20;100732.00;;;;2070623;28;20261;-55
2021/09/13 04:17:06;;;;;;;2.93;2.73;;;;;23.20;100686.00;;;;2065696;28;21076;-55
2021/09/13 04:18:06;;;;;;;2.87;2.67;;;;;23.20;100729.00;;;;2061950;28;20619;-54
2021/09/13 04:19:07;;;;;;;3.27;3.07;;;;;23.30;100722.00;;;;2061832;28;20215;-55
2021/09/13 04:20:08;;;;;;;3.03;2.83;;;;;23.30;100719.00;;;;2063177;28;20232;-55
2021/09/13 04:21:08;;;;;;;3.15;2.95;;;;;23.20;100719.00;;;;2062991;28;20229;-55
2021/09/13 04:22:09;;;;;;;3.30;3.10;;;;;23.30;100724.00;;;;2062625;28;20234;-56
2021/09/13 04:23:10;;;;;;;3.30;3.10;;;;;23.30;100716.00;;;;2062872;28;20211;-55
2021/09/13 04:24:10;;;;;;;2.90;2.70;;;;;23.20;100723.00;;;;2063117;28;20775;-57
2021/09/13 04:25:11;;;;;;;3.17;2.97;;;;;23.20;100724.00;;;;2062682;28;20218;-55
2021/09/13 04:26:12;;;;;;;3.03;2.83;;;;;23.20;100726.00;;;;2062858;28;20298;-56
2021/09/13 04:27:12;;;;;;;2.90;2.70;;;;;23.20;100735.00;;;;2062847;28;20318;-56
2021/09/13 04:28:12;;;;;;;2.77;2.57;;;;;23.20;100694.00;;;;2062877;28;20219;-55
2021/09/13 04:29:13;;;;;;;3.13;2.93;;;;;23.20;100730.00;;;;2058096;28;20997;-55
2021/09/13 04:30:13;;;;;;;2.90;2.70;;;;;23.20;100729.00;;;;2067630;28;20738;-55
2021/09/13 04:31:13;;;;;;;3.57;3.30;;;;;23.20;100731.00;;;;2071001;28;20293;-55
2021/09/13 04:32:14;;;;;;;3.13;2.93;;;;;23.20;100721.00;;;;2071009;28;20355;-56
2021/09/13 04:33:14;;;;;;;3.03;2.83;;;;;23.20;100734.00;;;;2070806;28;20229;-56
2021/09/13 04:34:15;;;;;;;2.93;2.73;;;;;23.20;100736.00;;;;2071288;28;20214;-54
2021/09/13 04:35:15;;;;;;;3.10;2.83;;;;;23.20;100728.00;;;;2070547;28;20924;-54
2021/09/13 04:36:15;;;;;;;3.40;3.10;;;;;23.20;100730.00;;;;2069931;28;20302;-56
2021/09/13 04:37:16;;;;;;;3.23;2.90;;;;;23.20;100731.00;;;;2070114;28;20721;-55
2021/09/13 04:38:16;;;;;;;3.57;3.30;;;;;23.20;100721.00;;;;2070023;28;20257;-57
2021/09/13 04:39:17;;;;;;;3.10;2.90;;;;;23.20;100723.00;;;;2069178;28;20221;-54
2021/09/13 04:40:17;;;;;;;3.20;2.90;;;;;23.20;100733.00;;;;2065621;28;20269;-55
2021/09/13 04:41:18;;;;;;;3.03;2.83;;;;;23.20;100729.00;;;;2064318;28;20676;-56
2021/09/13 04:42:18;;;;;;;3.20;3.00;;;;;23.20;100720.00;;;;2070686;28;20220;-56
2021/09/13 04:43:18;;;;;;;3.13;2.93;;;;;23.20;100729.00;;;;2070672;28;20679;-56
2021/09/13 04:44:19;;;;;;;3.20;3.00;;;;;23.20;100731.00;;;;2071107;28;20218;-56
2021/09/13 04:45:19;;;;;;;2.53;2.40;;;;;23.20;100731.00;;;;2070855;28;20218;-54
2021/09/13 04:46:19;;;;;;;3.20;3.00;;;;;23.20;100719.00;;;;2070765;28;20229;-55
2021/09/13 04:47:20;;;;;;;3.00;2.80;;;;;23.20;100736.00;;;;2070919;28;20306;-55
2021/09/13 04:48:20;;;;;;;4.17;2.80;;;;;23.20;100733.00;;;;2070940;28;20268;-56
2021/09/13 04:49:24;;;;;;;3.63;3.30;;;;;23.20;100734.00;;;;2069236;28;20256;-56
2021/09/13 04:50:24;;;;;;;3.20;3.00;;;;;23.20;100735.00;;;;2063345;28;20699;-56
2021/09/13 04:51:24;;;;;;;2.80;2.60;;;;;23.20;100730.00;;;;2062677;28;20261;-56
2021/09/13 04:52:25;;;;;;;3.17;2.97;;;;;23.20;100733.00;;;;2062380;28;20722;-56
2021/09/13 04:53:25;;;;;;;3.17;2.97;;;;;23.20;100734.00;;;;2062420;28;20298;-56
2021/09/13 04:54:25;;;;;;;3.47;3.17;;;;;23.20;100731.00;;;;2062527;28;20218;-54
2021/09/13 04:55:26;;;;;;;3.43;3.13;;;;;23.20;100736.00;;;;2062563;28;20261;-57
2021/09/13 04:56:26;;;;;;;3.23;3.03;;;;;23.20;100734.00;;;;2062445;28;20202;-56
2021/09/13 04:57:27;;;;;;;3.90;3.60;;;;;23.20;100739.00;;;;2062671;28;20211;-57
2021/09/13 04:58:27;;;;;;;3.17;2.93;;;;;23.20;100739.00;;;;2062545;28;20450;-57
2021/09/13 04:59:28;;;;;;;3.00;2.80;;;;;23.20;100740.00;;;;2060514;28;20220;-55
2021/09/13 05:00:28;;;;;;;3.17;2.97;;;;;23.20;100733.00;;;;2062089;28;20699;-57